createdAt,value
2022-11-24T00:00:38.866Z,20.90
2022-11-24T00:03:08.794Z,18.53
2022-11-24T00:05:39.228Z,18.80
2022-11-24T00:08:09.686Z,19.50
2022-11-24T00:10:39.589Z,19.83
2022-11-24T00:13:09.621Z,18.87
2022-11-24T00:15:39.542Z,19.70
2022-11-24T00:18:09.125Z,20.57
2022-11-24T00:20:39.031Z,18.03
2022-11-24T00:23:09.088Z,18.40
2022-11-24T00:25:38.785Z,18.33
2022-11-24T00:28:08.698Z,19.20
2022-11-24T00:30:38.653Z,19.60
2022-11-24T00:33:08.671Z,19.33
2022-11-24T00:35:38.543Z,17.33
2022-11-24T00:38:08.451Z,19.23
2022-11-24T00:40:38.217Z,16.57
2022-11-24T00:43:08.123Z,17.13
2022-11-24T00:45:38.042Z,17.80
2022-11-24T00:48:07.901Z,17.63
2022-11-24T00:50:37.522Z,19.47
2022-11-24T00:53:07.371Z,18.07
2022-11-24T00:55:37.285Z,19.43
2022-11-24T00:58:07.278Z,19.03
2022-11-24T01:00:37.189Z,20.57
2022-11-24T01:03:07.711Z,16.63
2022-11-24T01:05:38.744Z,18.45
2022-11-24T01:08:09.365Z,16.70
2022-11-24T01:10:40.102Z,15.40
2022-11-24T01:13:09.877Z,17.65
2022-11-24T01:15:40.107Z,18.37
2022-11-24T01:18:10.727Z,17.83
2022-11-24T01:20:42.816Z,17.10
2022-11-24T01:23:12.723Z,15.95
2022-11-24T01:25:42.603Z,18.37
2022-11-24T01:28:12.501Z,17.47
2022-11-24T01:30:42.495Z,18.27
2022-11-24T01:33:12.453Z,17.70
2022-11-24T01:35:42.406Z,17.70
2022-11-24T01:38:12.291Z,18.07
2022-11-24T01:40:42.223Z,16.23
2022-11-24T01:43:24.301Z,17.27
2022-11-24T01:45:54.890Z,17.00
2022-11-24T01:48:30.501Z,17.23
2022-11-24T01:51:15.960Z,17.20
2022-11-24T01:53:48.911Z,16.33
2022-11-24T01:56:19.261Z,17.27
2022-11-24T01:58:52.096Z,17.57
2022-11-24T02:01:21.972Z,17.37
2022-11-24T02:03:53.287Z,18.47
2022-11-24T02:06:26.253Z,16.82
2022-11-24T02:09:10.779Z,15.58
2022-11-24T02:11:42.803Z,16.17
2022-11-24T02:14:15.060Z,17.20
2022-11-24T02:16:47.423Z,16.77
2022-11-24T02:19:44.273Z,15.40
2022-11-24T02:22:22.737Z,15.32
2022-11-24T02:24:55.690Z,16.63
2022-11-24T02:27:26.016Z,17.80
2022-11-24T02:29:55.957Z,15.47
2022-11-24T02:32:26.005Z,16.67
2022-11-24T02:35:03.487Z,16.60
2022-11-24T02:37:33.689Z,15.58
2022-11-24T02:40:03.667Z,14.70
2022-11-24T02:42:36.636Z,15.93
2022-11-24T02:45:07.287Z,16.17
2022-11-24T02:47:37.250Z,15.25
2022-11-24T02:50:07.813Z,16.90
2022-11-24T02:52:38.081Z,17.62
2022-11-24T02:55:07.827Z,14.83
2022-11-24T02:57:37.739Z,17.70
2022-11-24T03:00:08.118Z,15.53
2022-11-24T03:02:37.857Z,16.17
2022-11-24T03:05:07.845Z,15.00
2022-11-24T03:07:37.823Z,17.43
2022-11-24T03:10:08.088Z,16.57
2022-11-24T03:12:37.774Z,15.33
2022-11-24T03:15:07.818Z,16.93
2022-11-24T03:17:37.788Z,16.07
2022-11-24T03:20:08.128Z,15.80
2022-11-24T03:22:38.858Z,16.10
2022-11-24T03:25:09.384Z,17.20
2022-11-24T03:27:39.337Z,17.47
2022-11-24T03:30:10.049Z,24.00
2022-11-24T03:32:40.344Z,17.65
2022-11-24T03:35:10.176Z,17.60
2022-11-24T03:37:40.381Z,17.20
2022-11-24T03:40:10.893Z,15.83
2022-11-24T03:42:41.396Z,16.27
2022-11-24T03:45:38.177Z,17.93
2022-11-24T03:47:43.162Z,16.80
2022-11-24T03:50:12.774Z,16.07
2022-11-24T03:52:42.792Z,17.07
2022-11-24T03:55:12.766Z,14.95
2022-11-24T03:57:42.650Z,15.60
2022-11-24T04:00:13.036Z,16.70
2022-11-24T04:02:42.806Z,15.10
2022-11-24T04:05:12.446Z,17.57
2022-11-24T04:07:42.486Z,15.97
2022-11-24T04:10:12.298Z,15.67
2022-11-24T04:12:44.988Z,15.45
2022-11-24T04:15:18.503Z,17.25
2022-11-24T04:17:49.958Z,16.62
2022-11-24T04:22:48.479Z,16.90
2022-11-24T04:25:18.206Z,17.10
2022-11-24T04:27:51.351Z,15.73
2022-11-24T04:30:22.167Z,16.10
2022-11-24T04:35:21.518Z,14.87
2022-11-24T04:37:51.361Z,16.17
2022-11-24T04:40:21.478Z,16.50
2022-11-24T04:42:56.054Z,15.88
2022-11-24T04:45:26.505Z,16.27
2022-11-24T04:47:56.117Z,16.03
2022-11-24T04:50:26.104Z,14.10
2022-11-24T04:52:59.064Z,15.40
2022-11-24T04:55:28.950Z,15.83
2022-11-24T04:57:58.851Z,15.57
2022-11-24T05:00:28.754Z,14.90
2022-11-24T05:02:59.011Z,16.75
2022-11-24T05:05:28.980Z,14.10
2022-11-24T05:08:00.989Z,15.58
2022-11-24T05:10:37.385Z,15.08
2022-11-24T05:13:10.003Z,16.50
2022-11-24T05:15:43.661Z,15.57
2022-11-24T05:18:16.452Z,15.50
2022-11-24T05:20:46.348Z,15.90
2022-11-24T05:23:16.382Z,16.20
2022-11-24T05:25:47.744Z,16.10
2022-11-24T05:28:18.053Z,14.57
2022-11-24T05:30:48.191Z,15.72
2022-11-24T05:33:20.368Z,14.53
2022-11-24T05:35:51.841Z,15.73
2022-11-24T05:38:23.690Z,16.07
2022-11-24T05:40:53.629Z,21.93
2022-11-24T05:43:23.179Z,20.37
2022-11-24T05:45:53.043Z,18.53
2022-11-24T05:48:22.742Z,18.67
2022-11-24T05:50:59.348Z,16.13
2022-11-24T05:53:29.521Z,20.57
2022-11-24T05:55:59.419Z,23.37
2022-11-24T05:58:29.240Z,27.03
2022-11-24T06:00:59.092Z,26.60
2022-11-24T06:03:28.932Z,29.13
2022-11-24T06:05:58.743Z,25.53
2022-11-24T06:08:31.202Z,24.97
2022-11-24T06:11:05.716Z,31.80
2022-11-24T06:13:35.925Z,22.87
2022-11-24T06:16:07.136Z,27.45
2022-11-24T06:18:37.497Z,31.27
2022-11-24T06:21:11.919Z,26.93
2022-11-24T06:23:39.048Z,24.37
2022-11-24T06:26:09.339Z,22.23
2022-11-24T06:28:39.159Z,20.83
2022-11-24T06:31:08.805Z,23.50
2022-11-24T06:33:40.159Z,18.87
2022-11-24T06:36:13.250Z,17.70
2022-11-24T06:38:43.135Z,16.63
2022-11-24T06:41:15.700Z,17.90
2022-11-24T06:43:46.535Z,16.60
2022-11-24T06:46:16.392Z,16.40
2022-11-24T06:48:46.331Z,14.50
2022-11-24T06:51:15.911Z,17.50
2022-11-24T06:53:46.049Z,14.67
2022-11-24T06:56:17.736Z,17.70
2022-11-24T06:58:50.005Z,17.63
2022-11-24T07:01:25.701Z,18.00
2022-11-24T07:03:58.166Z,16.10
2022-11-24T07:06:28.521Z,19.85
2022-11-24T07:08:58.357Z,19.00
2022-11-24T07:11:28.469Z,18.62
2022-11-24T07:14:00.214Z,17.67
2022-11-24T07:16:30.257Z,18.63
2022-11-24T07:19:00.565Z,18.67
2022-11-24T07:21:30.933Z,16.17
2022-11-24T07:24:01.187Z,19.85
2022-11-24T07:26:31.019Z,16.40
2022-11-24T07:29:00.833Z,18.90
2022-11-24T07:31:30.712Z,19.33
2022-11-24T07:34:01.162Z,20.97
2022-11-24T07:36:30.982Z,17.33
2022-11-24T07:39:00.982Z,18.70
2022-11-24T07:41:30.814Z,17.27
2022-11-24T07:44:01.008Z,19.32
2022-11-24T07:46:30.883Z,20.00
2022-11-24T07:49:00.720Z,21.50
2022-11-24T07:51:30.537Z,19.97
2022-11-24T07:54:00.359Z,17.27
2022-11-24T07:56:30.201Z,17.30
2022-11-24T07:59:00.507Z,18.57
2022-11-24T08:01:30.412Z,18.47
2022-11-24T08:04:01.874Z,16.23
2022-11-24T08:06:39.648Z,19.40
2022-11-24T08:09:03.795Z,18.50
2022-11-24T08:11:34.880Z,18.48
2022-11-24T08:14:04.739Z,17.50
2022-11-24T08:16:34.609Z,18.77
2022-11-24T08:19:04.464Z,18.60
2022-11-24T08:21:34.357Z,19.77
2022-11-24T08:24:04.595Z,19.48
2022-11-24T08:26:34.364Z,12.80
2022-11-24T08:29:04.200Z,18.90
2022-11-24T08:31:36.287Z,19.65
2022-11-24T08:34:07.641Z,19.03
2022-11-24T08:36:37.468Z,20.30
2022-11-24T08:39:07.231Z,19.97
2022-11-24T08:41:37.047Z,17.97
2022-11-24T08:44:08.425Z,18.47
2022-11-24T08:46:38.713Z,20.27
2022-11-24T08:49:08.989Z,20.40
2022-11-24T08:51:40.999Z,20.17
2022-11-24T08:54:13.576Z,22.88
2022-11-24T08:56:43.683Z,20.88
2022-11-24T08:59:14.793Z,22.77
2022-11-24T09:01:44.732Z,22.93
2022-11-24T09:04:14.315Z,24.20
2022-11-24T09:06:44.158Z,23.27
2022-11-24T09:09:13.821Z,25.03
2022-11-24T09:11:43.664Z,21.27
2022-11-24T09:14:13.167Z,22.87
2022-11-24T09:16:44.063Z,25.83
2022-11-24T09:19:13.980Z,26.65
2022-11-24T09:21:44.114Z,24.02
2022-11-24T09:24:13.598Z,23.57
2022-11-24T09:26:47.615Z,25.57
2022-11-24T09:29:15.177Z,23.87
2022-11-24T09:31:45.388Z,23.22
2022-11-24T09:34:16.482Z,21.90
2022-11-24T09:36:46.398Z,22.20
2022-11-24T09:39:16.231Z,22.07
2022-11-24T09:42:08.311Z,19.00
2022-11-24T09:44:59.167Z,21.57
2022-11-24T09:47:57.225Z,18.80
2022-11-24T09:50:33.051Z,20.27
2022-11-24T09:53:11.705Z,18.80
2022-11-24T09:55:53.373Z,18.20
2022-11-24T09:58:38.121Z,18.87
2022-11-24T10:01:22.636Z,17.13
2022-11-24T10:03:54.238Z,17.73
2022-11-24T10:06:34.389Z,20.17
2022-11-24T10:09:29.684Z,22.63
2022-11-24T10:12:11.434Z,20.43
2022-11-24T10:14:59.182Z,19.80
2022-11-24T10:17:34.709Z,17.37
2022-11-24T10:20:19.589Z,19.50
2022-11-24T10:22:58.164Z,17.80
2022-11-24T10:25:53.772Z,18.70
2022-11-24T10:28:25.099Z,18.10
2022-11-24T10:30:58.075Z,18.55
2022-11-24T10:33:31.063Z,18.02
2022-11-24T10:36:04.075Z,16.97
2022-11-24T10:38:48.731Z,16.63
2022-11-24T10:41:25.719Z,16.87
2022-11-24T10:43:58.913Z,16.83
2022-11-24T10:46:34.880Z,16.70
2022-11-24T10:49:06.606Z,19.47
2022-11-24T10:52:04.634Z,19.53
2022-11-24T10:54:36.092Z,17.57
2022-11-24T10:57:06.450Z,18.33
2022-11-24T10:59:40.717Z,19.43
2022-11-24T11:02:36.343Z,18.77
2022-11-24T11:05:36.868Z,18.90
2022-11-24T11:08:29.177Z,17.93
2022-11-24T11:11:17.724Z,19.73
2022-11-24T11:14:03.016Z,19.63
2022-11-24T11:16:39.868Z,18.97
2022-11-24T11:19:51.831Z,19.07
2022-11-24T11:22:12.319Z,20.33
2022-11-24T11:24:44.900Z,19.53
2022-11-24T11:27:27.490Z,19.85
2022-11-24T11:35:07.721Z,18.70
2022-11-24T11:37:37.605Z,16.50
2022-11-24T11:40:10.308Z,17.80
2022-11-24T11:43:01.841Z,17.33
2022-11-24T11:45:22.899Z,16.97
2022-11-24T11:47:59.028Z,17.80
2022-11-24T11:50:52.998Z,18.10
2022-11-24T11:53:31.016Z,18.53
2022-11-24T11:56:22.129Z,17.80
2022-11-24T11:59:01.012Z,17.20
2022-11-24T12:01:50.378Z,17.53
2022-11-24T12:04:47.571Z,17.90
2022-11-24T12:07:53.787Z,17.63
2022-11-24T12:10:38.288Z,18.23
2022-11-24T12:13:11.157Z,17.73
2022-11-24T12:15:59.393Z,17.67
2022-11-24T12:18:59.392Z,18.97
2022-11-24T12:21:40.682Z,16.80
2022-11-24T12:24:24.892Z,17.77
2022-11-24T12:26:57.800Z,17.33
2022-11-24T12:29:33.801Z,17.03
2022-11-24T12:32:28.446Z,17.90
2022-11-24T12:35:07.082Z,18.40
2022-11-24T12:37:54.790Z,17.23
2022-11-24T12:40:30.365Z,17.37
2022-11-24T12:43:21.445Z,16.30
2022-11-24T12:45:54.232Z,16.00
2022-11-24T12:48:56.094Z,16.90
2022-11-24T12:51:28.760Z,16.80
2022-11-24T12:54:00.913Z,16.67
2022-11-24T12:56:42.661Z,15.97
2022-11-24T12:59:37.069Z,18.42
2022-11-24T13:02:28.031Z,17.20
2022-11-24T13:05:03.550Z,16.60
2022-11-24T13:07:42.421Z,17.63
2022-11-24T13:13:07.322Z,17.47
2022-11-24T13:16:35.122Z,15.40
2022-11-24T13:18:57.863Z,16.52
2022-11-24T13:21:50.124Z,15.60
2022-11-24T13:24:22.779Z,16.17
2022-11-24T13:26:58.044Z,17.50
2022-11-24T13:29:39.059Z,17.07
2022-11-24T13:34:43.740Z,14.68
2022-11-24T13:37:34.508Z,16.60
2022-11-24T13:40:05.583Z,16.70
2022-11-24T13:42:42.157Z,17.87
2022-11-24T13:45:13.285Z,15.83
2022-11-24T13:47:47.131Z,17.40
2022-11-24T13:50:25.936Z,19.05
2022-11-24T13:53:21.387Z,17.13
2022-11-24T13:56:02.970Z,17.02
2022-11-24T13:58:44.896Z,18.27
2022-11-24T14:01:31.935Z,16.80
2022-11-24T14:04:31.067Z,16.73
2022-11-24T14:07:07.055Z,16.20
2022-11-24T14:09:53.097Z,18.97
2022-11-24T14:14:58.124Z,17.40
2022-11-24T14:17:29.129Z,17.98
2022-11-24T14:19:59.932Z,20.27
2022-11-24T14:22:41.363Z,16.37
2022-11-24T14:25:31.284Z,17.36
2022-11-24T14:28:02.316Z,17.32
2022-11-24T14:30:32.247Z,17.25
2022-11-24T14:33:04.411Z,18.97
2022-11-24T14:35:36.668Z,17.70
2022-11-24T14:38:09.648Z,17.27
2022-11-24T14:40:51.488Z,17.90
2022-11-24T14:43:34.636Z,18.87
2022-11-24T14:46:09.535Z,18.67
2022-11-24T14:48:53.231Z,19.33
2022-11-24T14:51:31.265Z,18.03
2022-11-24T14:54:07.325Z,18.83
2022-11-24T14:56:39.761Z,20.30
2022-11-24T14:59:23.684Z,18.87
2022-11-24T15:01:53.938Z,20.15
2022-11-24T15:07:05.874Z,19.03
2022-11-24T15:09:50.659Z,18.70
2022-11-24T15:12:30.683Z,17.67
2022-11-24T15:15:09.567Z,19.85
2022-11-24T15:17:48.032Z,18.57
2022-11-24T15:20:23.293Z,18.53
2022-11-24T15:22:55.452Z,16.93
2022-11-24T15:25:35.908Z,19.20
2022-11-24T15:28:08.690Z,17.60
2022-11-24T15:30:39.029Z,16.65
2022-11-24T15:33:17.733Z,16.27
2022-11-24T15:35:48.027Z,18.87
2022-11-24T15:38:18.241Z,17.92
2022-11-24T15:40:49.381Z,17.07
2022-11-24T15:43:21.927Z,19.53
2022-11-24T15:45:51.759Z,18.57
2022-11-24T15:48:22.040Z,19.20
2022-11-24T15:50:53.766Z,18.92
2022-11-24T15:53:33.426Z,17.27
2022-11-24T15:56:06.467Z,18.57
2022-11-24T15:58:36.675Z,18.40
2022-11-24T16:01:06.891Z,17.83
2022-11-24T16:03:52.193Z,18.83
2022-11-24T16:08:37.273Z,16.77
2022-11-24T16:11:07.606Z,19.37
2022-11-24T16:13:37.763Z,18.07
2022-11-24T16:16:07.883Z,18.50
2022-11-24T16:18:39.926Z,16.43
2022-11-24T16:21:11.193Z,17.33
2022-11-24T16:23:41.025Z,19.23
2022-11-24T16:26:11.598Z,17.93
2022-11-24T16:28:42.067Z,16.62
2022-11-24T16:31:12.889Z,17.70
2022-11-24T16:33:44.753Z,18.32
2022-11-24T16:36:15.458Z,17.57
2022-11-24T16:38:45.411Z,17.77
2022-11-24T16:41:16.974Z,18.33
2022-11-24T16:43:47.249Z,18.93
2022-11-24T16:46:22.606Z,16.70
2022-11-24T16:48:55.015Z,15.73
2022-11-24T16:51:29.934Z,17.60
2022-11-24T16:54:02.065Z,18.73
2022-11-24T16:56:32.381Z,18.90
2022-11-24T16:59:02.194Z,19.50
2022-11-24T17:01:33.176Z,18.20
2022-11-24T17:04:05.100Z,17.93
2022-11-24T17:06:38.206Z,20.37
2022-11-24T17:09:08.110Z,20.10
2022-11-24T17:11:38.958Z,17.70
2022-11-24T17:14:10.430Z,19.25
2022-11-24T17:16:40.459Z,19.60
2022-11-24T17:19:10.377Z,21.07
2022-11-24T17:21:40.278Z,21.77
2022-11-24T17:24:12.032Z,22.27
2022-11-24T17:26:47.461Z,23.93
2022-11-24T17:29:13.601Z,23.60
2022-11-24T17:31:43.472Z,22.93
2022-11-24T17:34:14.051Z,21.23
2022-11-24T17:36:45.574Z,23.50
2022-11-24T17:39:17.114Z,21.77
2022-11-24T17:41:46.984Z,21.27
2022-11-24T17:44:16.821Z,22.52
2022-11-24T17:46:46.649Z,21.70
2022-11-24T17:49:16.456Z,22.03
2022-11-24T17:51:48.280Z,20.27
2022-11-24T17:56:51.620Z,22.73
2022-11-24T17:59:21.449Z,24.92
2022-11-24T18:01:52.183Z,22.53
2022-11-24T18:04:22.257Z,23.42
2022-11-24T18:06:52.086Z,21.20
2022-11-24T18:09:21.596Z,24.77
2022-11-24T18:11:52.119Z,23.57
2022-11-24T18:14:21.810Z,24.63
2022-11-24T18:16:51.774Z,21.97
2022-11-24T18:19:21.483Z,25.07
2022-11-24T18:21:51.474Z,24.27
2022-11-24T18:24:24.253Z,20.47
2022-11-24T18:26:52.881Z,24.23
2022-11-24T18:29:22.704Z,21.35
2022-11-24T18:31:52.585Z,22.32
2022-11-24T18:34:24.098Z,20.57
2022-11-24T18:39:22.784Z,18.77
2022-11-24T18:41:52.591Z,20.05
2022-11-24T18:44:22.487Z,22.37
2022-11-24T18:46:52.218Z,21.33
2022-11-24T18:49:22.029Z,20.80
2022-11-24T18:51:52.945Z,21.97
2022-11-24T18:54:23.184Z,21.70
2022-11-24T18:56:53.559Z,24.07
2022-11-24T18:59:26.126Z,22.50
2022-11-24T19:01:56.576Z,20.65
2022-11-24T19:04:26.319Z,23.33
2022-11-24T19:06:56.204Z,22.70
2022-11-24T19:09:26.022Z,23.87
2022-11-24T19:11:55.934Z,24.00
2022-11-24T19:14:25.757Z,25.37
2022-11-24T19:16:56.026Z,23.50
2022-11-24T19:19:25.887Z,26.40
2022-11-24T19:21:56.074Z,25.13
2022-11-24T19:24:26.182Z,25.43
2022-11-24T19:26:56.175Z,27.13
2022-11-24T19:29:25.965Z,28.73
2022-11-24T19:31:56.026Z,26.83
2022-11-24T19:34:25.862Z,27.07
2022-11-24T19:36:56.049Z,26.68
2022-11-24T19:39:25.809Z,27.43
2022-11-24T19:41:55.656Z,29.40
2022-11-24T19:44:26.004Z,28.67
2022-11-24T19:46:55.861Z,28.60
2022-11-24T19:49:25.723Z,32.50
2022-11-24T19:51:55.526Z,31.87
2022-11-24T19:54:25.347Z,29.90
2022-11-24T19:56:56.341Z,28.30
2022-11-24T19:59:26.530Z,30.35
2022-11-24T20:01:57.711Z,28.93
2022-11-24T20:06:56.602Z,28.15
2022-11-24T20:09:26.482Z,27.07
2022-11-24T20:11:58.808Z,28.27
2022-11-24T20:14:28.912Z,28.73
2022-11-24T20:16:58.934Z,30.00
2022-11-24T20:19:28.917Z,28.90
2022-11-24T20:21:58.698Z,27.83
2022-11-24T20:24:28.626Z,28.57
2022-11-24T20:27:00.168Z,28.10
2022-11-24T20:29:31.767Z,27.03
2022-11-24T20:32:02.088Z,26.63
2022-11-24T20:34:31.958Z,26.47
2022-11-24T20:37:01.976Z,27.03
2022-11-24T20:39:31.619Z,28.70
2022-11-24T20:42:01.475Z,26.93
2022-11-24T20:44:32.789Z,29.33
2022-11-24T20:49:54.179Z,29.63
2022-11-24T20:52:23.698Z,27.40
2022-11-24T20:54:53.480Z,29.00
2022-11-24T20:57:23.040Z,26.60
2022-11-24T20:59:52.833Z,29.73
2022-11-24T21:02:22.704Z,27.37
2022-11-24T21:04:52.463Z,28.93
2022-11-24T21:07:22.334Z,29.95
2022-11-24T21:09:52.151Z,32.87
2022-11-24T21:12:21.753Z,33.07
2022-11-24T21:14:51.720Z,32.47
2022-11-24T21:17:21.620Z,35.40
2022-11-24T21:19:52.599Z,31.40
2022-11-24T21:22:23.216Z,26.85
2022-11-24T21:24:53.010Z,26.70
2022-11-24T21:27:22.944Z,27.30
2022-11-24T21:29:52.768Z,20.07
2022-11-24T21:32:23.133Z,26.33
2022-11-24T21:34:53.510Z,30.23
2022-11-24T21:37:23.343Z,24.67
2022-11-24T21:39:53.243Z,25.43
2022-11-24T21:42:22.810Z,24.20
2022-11-24T21:44:52.602Z,26.87
2022-11-24T21:47:22.384Z,28.10
2022-11-24T21:49:52.195Z,24.83
2022-11-24T21:52:22.651Z,23.90
2022-11-24T21:54:52.220Z,25.43
2022-11-24T21:57:23.154Z,24.23
2022-11-24T21:59:53.176Z,24.97
2022-11-24T22:02:22.735Z,23.97
2022-11-24T22:04:52.580Z,24.97
2022-11-24T22:07:22.322Z,24.63
2022-11-24T22:09:52.155Z,26.43
2022-11-24T22:12:21.660Z,26.33
2022-11-24T22:14:51.458Z,26.67
2022-11-24T22:17:20.999Z,26.77
2022-11-24T22:19:50.791Z,26.40
2022-11-24T22:22:20.608Z,26.02
2022-11-24T22:24:50.401Z,26.93
2022-11-24T22:27:20.203Z,27.07
2022-11-24T22:29:54.163Z,24.40
2022-11-24T22:32:22.397Z,27.03
2022-11-24T22:34:52.256Z,26.30
2022-11-24T22:37:21.769Z,25.63
2022-11-24T22:39:51.567Z,26.93
2022-11-24T22:42:21.061Z,27.30
2022-11-24T22:44:50.884Z,26.47
2022-11-24T22:47:20.465Z,26.13
2022-11-24T22:49:50.266Z,25.53
2022-11-24T22:52:20.138Z,26.77
2022-11-24T22:54:49.956Z,27.60
2022-11-24T22:57:19.535Z,26.53
2022-11-24T22:59:49.331Z,29.57
2022-11-24T23:02:18.842Z,27.07
2022-11-24T23:04:48.699Z,26.67
2022-11-24T23:07:18.760Z,26.90
2022-11-24T23:09:48.628Z,25.30
2022-11-24T23:12:18.506Z,25.90
2022-11-24T23:14:48.394Z,26.47
2022-11-24T23:17:18.174Z,25.45
2022-11-24T23:19:48.294Z,25.75
2022-11-24T23:22:18.082Z,27.65
2022-11-24T23:24:47.959Z,27.43
2022-11-24T23:27:17.616Z,27.13
2022-11-24T23:29:47.418Z,26.20
2022-11-24T23:32:17.121Z,27.00
2022-11-24T23:34:47.007Z,25.07
2022-11-24T23:37:16.794Z,25.97
2022-11-24T23:39:46.650Z,23.53
2022-11-24T23:42:16.452Z,25.23
2022-11-24T23:44:46.265Z,24.33
2022-11-24T23:47:16.329Z,22.87
2022-11-24T23:49:46.142Z,23.80
2022-11-24T23:52:15.635Z,25.10
2022-11-24T23:54:45.447Z,25.13
2022-11-24T23:57:15.101Z,25.00
2022-11-24T23:59:44.951Z,23.50
